Tiff City, MO (64868)

19:27:CDT den 20. Oktober 2014 (GMT -0500)
Grove Municipal | Change Station
CLOSE
Current Station
Flyplass
Location: Grove,
Høyde over havet: 833 ft
Nearby Weather Stations

H.o.h 833 ft 36.60 °N, 94.74 °W | Updated 12 minutes ago

Klart
Klart
64 °F
Feels Like 64 °F
N
0
Vind Variabel Vind from Nord

I dag
High -- | Low -- °F
--% Chance of Precip.
I går
High -- | Low -- °F
Precip. -- tommer
7:30 AM 6:35 PM
Minkende sigd, 8% visible
Lufttrykk 30.05 tommer
Sikt 10.0 eng. mil
Skyet Klart
Duggpunkt 61 °F
Fuktighet 88%
Regn 0.14 tommer
Snødybde Not available.
UV 0 av 12
Pollen 3.60 av 12
Luftkvalitet Not available.
Flu Activity No Activity
METAR KGMJ 210015Z AUTO 00000KT 10SM CLR 18/16 A3005 RMK AO2

More Conditions Fewer Conditions

Lufttrykk 30.05 tommer
Sikt 10.0 eng. mil
Skyet Klart
Duggpunkt 61 °F
Fuktighet 88%
Regn 0.14 tommer
Snødybde Not available.
UV 0 av 12
Pollen 3.60 av 12
Luftkvalitet Not available.
Flu Activity No Activity
METAR KGMJ 210015Z AUTO 00000KT 10SM CLR 18/16 A3005 RMK AO2

More Conditions Fewer Conditions

10-Day Weather Forecast

Almanac

Astronomi

Oct. 20, 2014 Oppgang Nedgang
Virkelig tid 07:30 CDT 18:35 CDT
Tussmørke 07:04 CDT 19:01 CDT
Nautisk skumring 06:34 CDT 19:31 CDT
Astronomisk skumring 06:04 CDT 20:01 CDT
Månen 04:24 CDT (10/20) 16:54 CDT (10/20)
Lengde av synlig lys 11h 57m
Dagens lengde
11h 05m
Tomorrow will be 2m 13s shorter.
Minkende sigd, 8% of the Moon is Illuminated
I dag
Minkende sigd
Oct 23
Ny
Oct 30
Første kvarter
Nov 6
Fullmåne
Nov 14
Siste kvarter

Dagens maks og min

State Highs State Lows

Community

WunderPhotos

Upload Photos

1,763,552 photos uploaded!

Nearby

Snødybde

Stasjon Depth Høyde over havet
No new snow has been reported.

Earthquake Activity

By Distance Mag. Time & Date
Boley, Oklahoma 139 eng. mil 3.5 15:34 CDT
2014-10-20
Minimum magnitude displayed is 2.5.

Coastal Water Temperatures

Sted Temperatur
Ingen stasjoner raporterer

Nearby Weather Stations